• Join FlightAware (Why Join?)
  • Login
  • US Flag 
Rudolph Flight #1: Arrived! 
03:55AM EST


 

Airport Tracker/Info


-or-


 

Live Flight TrackerFlight Track Log ✈ TAM3701 ✈ 02-May-2013 ✈ SBBR / BSB - SBSP / CGH

Flight Track Log - Related Links

Times and Time Zones

All times are in EDT time to prevent confusion due to time zone crossing. See the TAM3701 flight status page for this flight to view local times or setup timezone preferences in your user account.

Time Position Orientation Groundspeed Altitude Reporting Facility
EDT Latitude Longitude Course Direction KTS MPH feet Rate Location/Type
08:22AM -15.8600 -47.8740 84° East 150 173 5,100  Level FlightAware
08:22AM -15.8590 -47.8560 87° East 163 188 5,700 1,080 Climbing FlightAware
08:23AM -15.8570 -47.8310 85° East 166 191 6,100 420 Climbing FlightAware
08:23AM -15.8550 -47.8130 83° East 166 191 6,100 2,100 Level FlightAware
08:24AM -15.8860 -47.7720 128° Southeast 216 249 8,900 2,160 Climbing FlightAware
08:25AM -15.9260 -47.7800 191° South 245 282 9,400 840 Climbing FlightAware
08:25AM -15.9380 -47.7830 194° South 272 313 9,600 900 Climbing FlightAware
08:26AM -16.0120 -47.7950 189° South 294 338 10,500 1,920 Climbing FlightAware
08:26AM -16.0880 -47.8090 190° South 350 403 12,700 2,640 Climbing FlightAware
08:27AM -16.1450 -47.8190 190° South 365 420 13,800 1,920 Climbing FlightAware
08:28AM -16.2160 -47.8310 189° South 375 432 15,300 1,980 Climbing FlightAware
08:29AM -16.3720 -47.8590 190° South 385 443 18,300 1,860 Climbing FlightAware
08:32AM -16.5951 -47.8235 171° South  Level Estimated
08:32AM -16.6410 -47.9060 171° South 396 456 22,800  Level FlightAware
08:32AM -16.7170 -47.9190 189° South 396 456 22,800 1,380 Level FlightAware
08:33AM -16.7900 -47.9310 189° South 407 468 24,700 1,380 Climbing FlightAware
08:34AM -16.8650 -47.9380 185° South 407 468 24,700  Level FlightAware
08:34AM -16.9290 -47.9430 184° South 407 468 24,700  Level FlightAware
08:35AM -16.9920 -47.9490 185° South 407 468 24,700  Level FlightAware
08:36AM -17.0560 -47.9550 185° South 407 468 24,700  Level FlightAware
08:37AM -17.1360 -47.9620 185° South 407 468 24,700 900 Level FlightAware
08:39AM -17.2975 -47.9308 170° South  Level Estimated
08:40AM -17.3833 -47.9141 170° South  Level Estimated
08:41AM -17.4691 -47.8975 170° South  Level Estimated
08:42AM -17.5548 -47.8809 170° South  Level Estimated
08:43AM -17.6406 -47.8642 170° South  Level Estimated
08:44AM -17.7264 -47.8475 170° South  Level Estimated
08:45AM -17.8122 -47.8308 170° South  Level Estimated
08:46AM -17.8979 -47.8141 169° South  Level Estimated
08:47AM -17.9837 -47.7974 169° South  Level Estimated
08:48AM -18.0695 -47.7806 169° South  Level Estimated
08:49AM -18.1552 -47.7639 169° South  Level Estimated
08:50AM -18.2410 -47.7471 169° South  Level Estimated
08:50AM -18.7700 -47.6670 169° South 419 482 38,000  Level FlightAware
08:51AM -18.8790 -47.6630 178° South 421 484 38,000  Level FlightAware
08:52AM -18.9550 -47.6640 181° South 421 484 38,000  Level FlightAware
08:52AM -19.0270 -47.6640 180° South 422 486 38,000  Level FlightAware
08:53AM -19.1040 -47.6640 180° South 422 486 38,000  Level FlightAware
08:53AM -19.1810 -47.6650 181° South 422 486 38,000  Level FlightAware
08:54AM -19.2650 -47.6650 180° South 422 486 38,000  Level FlightAware
08:55AM -19.3480 -47.6660 181° South 421 484 38,000  Level FlightAware
08:56AM -19.4260 -47.6660 180° South 420 483 38,000  Level FlightAware
08:56AM -19.5000 -47.6660 180° South 420 483 38,000  Level FlightAware
08:57AM -19.5920 -47.6670 181° South 422 486 38,000  Level FlightAware
08:58AM -19.6790 -47.6670 180° South 422 486 38,000  Level FlightAware
08:58AM -19.7370 -47.6670 180° South 422 486 38,000  Level FlightAware
08:59AM -19.8230 -47.6680 181° South 423 487 38,000  Level FlightAware
09:00AM -19.9490 -47.6680 180° South 423 487 38,000  Level FlightAware
09:01AM -20.0300 -47.6690 181° South 423 487 38,000  Level FlightAware
09:01AM -20.0970 -47.6690 180° South 423 487 38,000  Level FlightAware
09:02AM -20.1950 -47.6690 180° South 422 486 38,000  Level FlightAware
09:03AM -20.3100 -47.6700 180° South 422 486 38,000  Level FlightAware
09:04AM -20.4110 -47.6700 180° South 422 486 38,000  Level FlightAware
09:05AM -20.5080 -47.6710 181° South 421 484 38,000  Level FlightAware
09:06AM -20.6080 -47.6710 180° South 420 483 38,000  Level FlightAware
09:06AM -20.6950 -47.6720 181° South 420 483 38,000  Level FlightAware
09:07AM -20.7980 -47.6720 180° South 419 482 38,000  Level FlightAware
09:08AM -20.8980 -47.6730 181° South 420 483 38,000  Level FlightAware
09:10AM -21.0670 -47.6730 180° South 421 484 38,000  Level FlightAware
09:10AM -21.1450 -47.6740 181° South 421 484 38,000  Level FlightAware
09:11AM -21.2150 -47.6740 180° South 421 484 38,000  Level FlightAware
09:12AM -21.3510 -47.6750 180° South 422 486 38,000  Level FlightAware
09:13AM -21.4800 -47.6750 180° South 420 483 38,000  Level FlightAware
09:14AM -21.5670 -47.6760 181° South 419 482 38,000  Level FlightAware
09:14AM -21.6440 -47.6760 180° South 418 481 38,000  Level FlightAware
09:15AM -21.7240 -47.6760 180° South 419 482 38,000  Level FlightAware
09:16AM -21.8090 -47.6770 181° South 418 481 38,000  Level FlightAware
09:16AM -21.8850 -47.6770 180° South 418 481 38,000 -900 Level FlightAware
09:17AM -21.9750 -47.6780 181° South 427 491 36,800 -2,160 Descending FlightAware
09:18AM -22.0530 -47.6780 180° South 428 493 35,000 -2,760 Descending FlightAware
09:18AM -22.1450 -47.6780 180° South 433 498 32,900 -2,580 Descending FlightAware
09:19AM -22.2130 -47.6780 180° South 427 491 31,600 -2,280 Descending FlightAware
09:20AM -22.3130 -47.6790 181° South 418 481 29,700 -2,220 Descending FlightAware
09:21AM -22.3900 -47.6790 180° South 412 474 28,300 -2,100 Descending FlightAware
09:21AM -22.4660 -47.6790 180° South 405 466 26,900 -2,160 Descending FlightAware
09:22AM -22.5470 -47.6800 181° South 398 458 25,300 -2,280 Descending FlightAware
09:23AM -22.6110 -47.6690 171° South 393 452 23,900 -2,160 Descending FlightAware
09:23AM -22.6740 -47.6330 152° Southeast 383 441 22,600 -1,920 Descending FlightAware
09:24AM -22.7840 -47.5720 153° Southeast 364 419 20,300 -1,860 Descending FlightAware
09:26AM -22.8750 -47.4940 142° Southeast 347 399 18,200 -1,800 Descending FlightAware
09:27AM -22.9500 -47.4250 140° Southeast 341 392 16,500 -1,740 Descending FlightAware
09:27AM -23.0010 -47.3780 140° Southeast 342 394 15,300 -1,800 Descending FlightAware
09:28AM -23.0560 -47.3260 139° Southeast 339 390 14,000 -1,680 Descending FlightAware
09:29AM -23.0980 -47.2870 140° Southeast 326 375 13,000 -1,320 Descending FlightAware
09:30AM -23.1550 -47.2340 139° Southeast 314 361 12,100 -960 Descending FlightAware
09:30AM -23.2100 -47.1830 140° Southeast 299 344 11,400 -720 Descending FlightAware
09:31AM -23.2500 -47.1450 139° Southeast 297 342 11,100 -480 Descending FlightAware
09:32AM -23.2910 -47.1070 140° Southeast 295 339 10,800 -540 Descending FlightAware
09:32AM -23.3390 -47.0620 139° Southeast 295 339 10,400 -600 Descending FlightAware
09:33AM -23.3800 -47.0230 139° Southeast 296 341 10,000 -600 Descending FlightAware
09:33AM -23.3950 -47.0100 142° Southeast 294 338 9,900 -480 Descending FlightAware
09:34AM -23.4210 -46.9850 139° Southeast 294 338 9,700 -480 Descending FlightAware
09:34AM -23.4350 -46.9720 140° Southeast 294 338 9,600 -540 Descending FlightAware
09:35AM -23.4680 -46.9410 139° Southeast 294 338 9,300 -540 Descending FlightAware
09:35AM -23.4820 -46.9280 140° Southeast 294 338 9,200 -480 Descending FlightAware
09:35AM -23.5080 -46.9040 140° Southeast 292 336 9,000 -480 Descending FlightAware
09:36AM -23.5370 -46.8750 137° Southeast 290 334 8,800 -540 Descending FlightAware
09:36AM -23.5670 -46.8460 138° Southeast 282 325 8,500 -600 Descending FlightAware
09:37AM -23.5890 -46.8250 139° Southeast 286 329 8,300 -480 Descending FlightAware
09:37AM -23.6190 -46.7960 138° Southeast 287 330 8,100 -300 Descending FlightAware
09:38AM -23.6600 -46.7550 138° Southeast 290 334 8,000 -600 Descending FlightAware
09:38AM -23.6880 -46.7270 138° Southeast 286 329 7,400 -1,320 Descending FlightAware
09:39AM -23.7130 -46.7020 138° Southeast 281 323 6,800 -1,800 Descending FlightAware
09:39AM -23.7430 -46.6730 138° Southeast 284 327 5,800 -1,740 Descending FlightAware
09:40AM -23.7730 -46.6440 139° Southeast 272 313 5,100 -1,440 Descending FlightAware
09:40AM -23.7920 -46.6220 133° Southeast 259 298 4,500 -1,380 Descending FlightAware
09:40AM -23.7950 -46.6060 102° East 251 289 4,300 -420 Descending FlightAware
09:41AM -23.7840 -46.5800 65° Northeast 217 250 4,300  Level FlightAware
09:41AM -23.7760 -46.5750 30° Northeast 202 232 4,300  Level FlightAware
09:41AM -23.7620 -46.5720 11° North 194 223 4,300  Level FlightAware
09:42AM -23.7410 -46.5780 345° North 175 201 4,300  Level FlightAware
09:42AM -23.7250 -46.5890 328° Northwest 158 182 4,300 -120 Level FlightAware
09:42AM -23.7080 -46.6000 329° Northwest 140 161 4,200 -540 Descending FlightAware
09:43AM -23.6930 -46.6100 329° Northwest 135 155 3,800 -840 Descending FlightAware
09:43AM -23.6810 -46.6190 326° Northwest 140 161 3,500 -780 Descending FlightAware
09:44AM -23.6550 -46.6370 328° Northwest 142 163 2,900 -720 Descending FlightAware
09:44AM -23.6490 -46.6410 329° Northwest 139 160 2,800 -360 Descending FlightAware
09:45AM -23.6270 -46.6570 326° Northwest 143 165 2,600 -300 Descending FlightAware
09:50AM -23.6267 -46.6554 250° West  Level Estimated
09:51AM -23.6267 -46.6554 114° Southeast  Level Estimated
09:52AM -23.6267 -46.6554 114° Southeast  Level Estimated
09:53AM -23.6267 -46.6554 114° Southeast  Level Estimated
09:54AM -23.6267 -46.6554 114° Southeast  Level Estimated
09:55AM -23.6267 -46.6554 114° Southeast  Level Estimated
09:56AM -23.6267 -46.6554 114° Southeast  Level Estimated
09:57AM -23.6267 -46.6554 114° Southeast  Level Estimated
09:58AM -23.6267 -46.6554 114° Southeast  Level Estimated
09:59AM -23.6267 -46.6554 114° Southeast  Level Estimated
10:00AM -23.6267 -46.6554 114° Southeast  Level Estimated
10:01AM -23.6267 -46.6554 114° Southeast  Level Estimated
10:02AM -23.6267 -46.6554 114° Southeast  Level Estimated
10:03AM -23.6267 -46.6554 114° Southeast  Level Estimated
10:04AM -23.6267 -46.6554 114° Southeast  Level Estimated
10:05AM -23.6267 -46.6554 114° Southeast  Level Estimated
10:06AM -23.6267 -46.6554 114° Southeast  Level Estimated
10:07AM -23.6267 -46.6554 114° Southeast  Level Estimated
10:08AM -23.6267 -46.6554 114° Southeast  Level Estimated
10:09AM -23.6267 -46.6554 114° Southeast  Level Estimated
10:10AM -23.6267 -46.6554 114° Southeast  Level Estimated
10:11AM -23.6267 -46.6554 114° Southeast  Level Estimated
10:12AM -23.6267 -46.6554 114° Southeast  Level Estimated
10:13AM -23.6267 -46.6554 114° Southeast  Level Estimated
10:14AM -23.6267 -46.6554 114° Southeast  Level Estimated
10:15AM -23.6267 -46.6554 114° Southeast  Level Estimated
10:16AM -23.6267 -46.6554 114° Southeast  Level Estimated
10:17AM -23.6267 -46.6554 114° Southeast  Level Estimated